Time;durP1;ratioP1;P1;durP2;ratioP2;P2;SDS_P1;SDS_P2;PMS_P1;PMS_P2;Temp;Humidity;BMP_temperature;BMP_pressure;BME280_temperature;BME280_humidity;BME280_pressure;Samples;Min_cycle;Max_cycle;Signal;HPM_P1;HPM_P2
2021/10/09 00:00:34;;;;;;;;;;;11.80;1.00;;;;;;5051710;28;20349;-83
2021/10/09 00:02:59;;;;;;;;;;;11.70;1.00;;;;;;5044716;28;19930;-83
2021/10/09 00:05:24;;;;;;;;;;;11.70;1.00;;;;;;5049550;28;20019;-83
2021/10/09 00:07:50;;;;;;;;;;;11.60;99.90;;;;;;5060002;28;20007;-83
2021/10/09 00:10:25;;;;;;;;;;;11.60;99.90;;;;;;5051542;28;19913;-83
2021/10/09 00:12:50;;;;;;;;;;;11.50;99.90;;;;;;5063129;28;19912;-83
2021/10/09 00:15:16;;;;;;;;;;;11.50;99.90;;;;;;5050425;28;19975;-83
2021/10/09 00:17:41;;;;;;;;;;;11.40;1.00;;;;;;5049350;28;19967;-83
2021/10/09 00:20:07;;;;;;;;;;;11.40;1.00;;;;;;5046172;28;20332;-83
2021/10/09 00:22:32;;;;;;;;;;;11.30;1.00;;;;;;5060437;28;19913;-83
2021/10/09 00:24:58;;;;;;;;;;;11.30;1.00;;;;;;5052341;28;19919;-83
2021/10/09 00:27:23;;;;;;;;;;;11.30;1.00;;;;;;5059354;28;20372;-83
2021/10/09 00:29:49;;;;;;;;;;;11.30;1.00;;;;;;5051235;28;19983;-83
2021/10/09 00:32:14;;;;;;;;;;;11.20;23.50;;;;;;5059227;28;19913;-83
2021/10/09 00:34:40;;;;;;;;;;;11.20;99.90;;;;;;5050697;28;19958;-83
2021/10/09 00:37:06;;;;;;;;;;;11.20;99.90;;;;;;5058363;28;20395;-83
2021/10/09 00:39:31;;;;;;;;;;;11.10;99.90;;;;;;5053088;28;19917;-83
2021/10/09 00:41:56;;;;;;;;;;;11.10;99.90;;;;;;5058339;28;19921;-83
2021/10/09 00:44:22;;;;;;;;;;;11.10;99.90;;;;;;5050928;28;19917;-83
2021/10/09 00:46:48;;;;;;;;;;;11.10;99.90;;;;;;5045777;28;19917;-83
2021/10/09 00:49:16;;;;;;;;;;;11.10;99.90;;;;;;5034436;28;19913;-83
2021/10/09 00:51:46;;;;;;;;;;;11.00;99.90;;;;;;5056377;28;20384;-83
2021/10/09 00:54:13;;;;;;;;;;;11.00;99.90;;;;;;5053123;28;19913;-83
2021/10/09 00:56:39;;;;;;;;;;;11.00;99.90;;;;;;5057664;28;19920;-83
2021/10/09 00:59:05;;;;;;;;;;;10.90;99.90;;;;;;5049427;28;19916;-83
2021/10/09 01:01:31;;;;;;;;;;;11.00;99.90;;;;;;5049663;28;20411;-83
2021/10/09 01:03:57;;;;;;;;;;;11.00;99.90;;;;;;5048675;28;19909;-83
2021/10/09 01:06:22;;;;;;;;;;;10.90;99.90;;;;;;5046503;28;19939;-83
2021/10/09 01:08:48;;;;;;;;;;;10.90;99.90;;;;;;5056741;28;20357;-83
2021/10/09 01:11:13;;;;;;;;;;;10.90;99.90;;;;;;5060461;28;19913;-83
2021/10/09 01:13:39;;;;;;;;;;;10.90;99.90;;;;;;5049182;28;19962;-82
2021/10/09 01:16:16;;;;;;;;;;;10.90;99.90;;;;;;5054815;28;19959;-83
2021/10/09 01:18:42;;;;;;;;;;;10.90;99.90;;;;;;5050094;28;19967;-83
2021/10/09 01:21:07;;;;;;;;;;;10.90;99.90;;;;;;5043301;28;19913;-83
2021/10/09 01:23:35;;;;;;;;;;;10.90;99.90;;;;;;5056610;28;19919;-83
2021/10/09 01:26:01;;;;;;;;;;;10.90;99.90;;;;;;5055202;28;19920;-83
2021/10/09 01:28:27;;;;;;;;;;;10.80;99.90;;;;;;5053475;28;19938;-83
2021/10/09 01:30:53;;;;;;;;;;;10.80;99.90;;;;;;5052579;28;19917;-83
2021/10/09 01:33:19;;;;;;;;;;;10.80;99.90;;;;;;5041982;28;19921;-83
2021/10/09 01:35:48;;;;;;;;;;;10.80;99.90;;;;;;5043447;28;19916;-84
2021/10/09 01:38:14;;;;;;;;;;;10.70;99.90;;;;;;5044975;28;19913;-83
2021/10/09 01:40:39;;;;;;;;;;;10.70;99.90;;;;;;5042269;28;19916;-82
2021/10/09 01:43:07;;;;;;;;;;;10.70;99.90;;;;;;5048870;28;20043;-83
2021/10/09 01:45:33;;;;;;;;;;;10.70;99.90;;;;;;5036157;28;19916;-83
2021/10/09 01:47:58;;;;;;;;;;;10.70;99.90;;;;;;5042254;28;19918;-83
2021/10/09 01:50:24;;;;;;;;;;;10.60;99.90;;;;;;5038027;28;19909;-83
2021/10/09 01:52:49;;;;;;;;;;;10.60;99.90;;;;;;5049083;28;19912;-83
2021/10/09 01:55:15;;;;;;;;;;;10.60;99.90;;;;;;5043878;28;19920;-83
2021/10/09 01:57:40;;;;;;;;;;;10.60;99.90;;;;;;5048382;28;20410;-83
2021/10/09 02:00:06;;;;;;;;;;;10.60;99.90;;;;;;5045016;28;19909;-83
2021/10/09 02:02:31;;;;;;;;;;;10.50;99.90;;;;;;5041891;28;19948;-83
2021/10/09 02:04:57;;;;;;;;;;;10.50;99.90;;;;;;5048314;28;19986;-83
2021/10/09 02:07:23;;;;;;;;;;;10.40;99.90;;;;;;5047614;28;20331;-83
2021/10/09 02:09:49;;;;;;;;;;;10.40;99.90;;;;;;5046427;28;19913;-83
2021/10/09 02:12:14;;;;;;;;;;;10.30;99.90;;;;;;5052093;28;19913;-83
2021/10/09 02:27:30;;;;;;;;;;;10.10;99.90;;;;;;5040462;28;19944;-83
2021/10/09 02:29:55;;;;;;;;;;;10.00;99.90;;;;;;5054640;28;19913;-83
2021/10/09 02:32:21;;;;;;;;;;;10.00;99.90;;;;;;5038368;28;19917;-83
2021/10/09 02:34:46;;;;;;;;;;;9.90;99.90;;;;;;5052549;28;19964;-83
2021/10/09 02:37:12;;;;;;;;;;;9.90;99.90;;;;;;5054414;28;19920;-83
2021/10/09 02:39:37;;;;;;;;;;;9.90;99.90;;;;;;5044940;28;19971;-83
2021/10/09 02:42:03;;;;;;;;;;;9.80;99.90;;;;;;5043173;28;19919;-83
2021/10/09 02:44:28;;;;;;;;;;;9.80;99.90;;;;;;5047252;28;19920;-83
2021/10/09 02:46:54;;;;;;;;;;;9.80;99.90;;;;;;5054721;28;19910;-83
2021/10/09 02:49:19;;;;;;;;;;;9.80;99.90;;;;;;5056537;28;20056;-83
2021/10/09 02:51:45;;;;;;;;;;;9.70;99.90;;;;;;5051868;28;19996;-83
2021/10/09 02:54:10;;;;;;;;;;;9.70;99.90;;;;;;5051079;28;19972;-83
2021/10/09 02:56:36;;;;;;;;;;;9.70;99.90;;;;;;5053100;28;19917;-83
2021/10/09 02:59:02;;;;;;;;;;;9.70;99.90;;;;;;5055367;28;19963;-83
2021/10/09 03:01:28;;;;;;;;;;;9.60;99.90;;;;;;5048006;28;19920;-83
2021/10/09 03:03:53;;;;;;;;;;;9.60;99.90;;;;;;5050177;28;19914;-83
2021/10/09 03:06:19;;;;;;;;;;;9.60;99.90;;;;;;5049186;28;19944;-83
2021/10/09 03:08:44;;;;;;;;;;;9.50;99.90;;;;;;5050557;28;19913;-83
2021/10/09 03:11:10;;;;;;;;;;;9.50;99.90;;;;;;5047737;28;19919;-83
2021/10/09 03:13:35;;;;;;;;;;;9.50;99.90;;;;;;5053594;28;19919;-83
2021/10/09 03:16:01;;;;;;;;;;;9.50;99.90;;;;;;5048115;28;19920;-83
2021/10/09 03:18:26;;;;;;;;;;;9.50;99.90;;;;;;5050963;28;19963;-83
2021/10/09 03:20:51;;;;;;;;;;;9.40;99.90;;;;;;5060658;28;19908;-83
2021/10/09 03:23:17;;;;;;;;;;;9.40;99.90;;;;;;5052432;28;19920;-83
2021/10/09 03:25:42;;;;;;;;;;;9.40;99.90;;;;;;5052480;28;19941;-82
2021/10/09 03:28:08;;;;;;;;;;;9.40;99.90;;;;;;5050471;28;19916;-83
2021/10/09 03:30:33;;;;;;;;;;;9.40;99.90;;;;;;5044059;28;20387;-83
2021/10/09 03:32:59;;;;;;;;;;;9.40;99.90;;;;;;5050918;28;19966;-83
2021/10/09 03:35:24;;;;;;;;;;;9.40;1.00;;;;;;5061475;28;20438;-83
2021/10/09 03:37:50;;;;;;;;;;;9.30;99.90;;;;;;5057082;28;20002;-83
2021/10/09 03:40:18;;;;;;;;;;;9.30;99.90;;;;;;5049198;28;19913;-83
2021/10/09 03:48:39;;;;;;;;;;;9.20;1.00;;;;;;5050795;28;19924;-83
2021/10/09 03:53:34;;;;;;;;;;;9.10;1.00;;;;;;5051328;28;19939;-83
2021/10/09 03:56:00;;;;;;;;;;;9.10;1.00;;;;;;5058478;28;19909;-83
2021/10/09 03:58:26;;;;;;;;;;;9.10;1.00;;;;;;5051259;28;19913;-83
2021/10/09 04:00:51;;;;;;;;;;;9.00;1.00;;;;;;5043186;28;20392;-83
2021/10/09 04:03:16;;;;;;;;;;;9.00;1.00;;;;;;5054246;28;19924;-83
2021/10/09 04:05:42;;;;;;;;;;;9.00;1.00;;;;;;5044921;28;19912;-83
2021/10/09 04:08:08;;;;;;;;;;;9.00;1.00;;;;;;5060282;28;19921;-83
2021/10/09 04:10:35;;;;;;;;;;;8.90;1.00;;;;;;5053950;28;20443;-83
2021/10/09 04:13:01;;;;;;;;;;;8.90;1.00;;;;;;5052926;28;20008;-83
2021/10/09 04:15:26;;;;;;;;;;;8.80;1.00;;;;;;5053268;28;19941;-83
2021/10/09 04:17:52;;;;;;;;;;;8.80;1.00;;;;;;5052910;28;19917;-83
2021/10/09 04:20:17;;;;;;;;;;;8.80;1.00;;;;;;5049104;28;19999;-83
2021/10/09 04:22:43;;;;;;;;;;;8.80;1.00;;;;;;5048982;28;19913;-83
2021/10/09 04:25:08;;;;;;;;;;;8.80;1.00;;;;;;5054515;28;19920;-83
2021/10/09 04:27:34;;;;;;;;;;;8.80;1.00;;;;;;5058748;28;19912;-83
2021/10/09 04:30:00;;;;;;;;;;;8.80;1.00;;;;;;5051167;28;19913;-83
2021/10/09 04:32:25;;;;;;;;;;;8.80;1.00;;;;;;5061860;28;19935;-83
2021/10/09 04:34:51;;;;;;;;;;;8.80;1.00;;;;;;5053748;28;19916;-83
2021/10/09 04:37:16;;;;;;;;;;;8.80;1.00;;;;;;5064301;28;19909;-83
2021/10/09 04:39:41;;;;;;;;;;;8.70;1.00;;;;;;5048505;28;20393;-83
2021/10/09 04:42:07;;;;;;;;;;;8.70;1.00;;;;;;5055860;28;19931;-83
2021/10/09 04:44:33;;;;;;;;;;;8.70;1.00;;;;;;5046506;28;20284;-83
2021/10/09 04:46:58;;;;;;;;;;;8.70;1.00;;;;;;5048400;28;19960;-83
2021/10/09 04:49:24;;;;;;;;;;;8.70;1.00;;;;;;5042186;28;19915;-84
2021/10/09 04:51:49;;;;;;;;;;;8.70;1.00;;;;;;5045637;28;20332;-83
2021/10/09 04:54:14;;;;;;;;;;;8.60;1.00;;;;;;5050488;28;19909;-83
2021/10/09 04:56:40;;;;;;;;;;;8.60;1.00;;;;;;5054228;28;19939;-83
2021/10/09 04:59:05;;;;;;;;;;;8.60;1.00;;;;;;5049553;28;19991;-83
2021/10/09 05:01:31;;;;;;;;;;;8.60;1.00;;;;;;5053616;28;19917;-83
2021/10/09 05:03:57;;;;;;;;;;;8.60;1.00;;;;;;5051830;28;19909;-83
2021/10/09 05:06:22;;;;;;;;;;;8.50;1.00;;;;;;5052916;28;20394;-83
2021/10/09 05:08:47;;;;;;;;;;;8.50;1.00;;;;;;5051887;28;20007;-82
2021/10/09 05:11:16;;;;;;;;;;;8.50;1.00;;;;;;5045178;28;19921;-83
2021/10/09 05:13:41;;;;;;;;;;;8.50;1.00;;;;;;5043260;28;19917;-83
2021/10/09 05:16:07;;;;;;;;;;;8.50;1.00;;;;;;5049996;28;19917;-83
2021/10/09 05:18:32;;;;;;;;;;;8.40;1.00;;;;;;5046345;28;19917;-83
2021/10/09 05:20:57;;;;;;;;;;;8.40;1.00;;;;;;5047456;28;19909;-83
2021/10/09 05:23:23;;;;;;;;;;;8.40;1.00;;;;;;5057317;28;20056;-83
2021/10/09 05:25:49;;;;;;;;;;;8.40;1.00;;;;;;5044531;28;19920;-83
2021/10/09 05:28:18;;;;;;;;;;;8.40;1.00;;;;;;5052781;28;19917;-83
2021/10/09 05:30:47;;;;;;;;;;;8.30;1.00;;;;;;5045427;28;19921;-83
2021/10/09 05:35:41;;;;;;;;;;;8.20;1.00;;;;;;5072590;22;21017;-77
2021/10/09 05:38:07;;;;;;;;;;;8.20;1.00;;;;;;5091320;28;20299;-80
2021/10/09 05:40:33;;;;;;;;;;;8.20;1.00;;;;;;5092786;28;19916;-81
2021/10/09 05:42:58;;;;;;;;;;;8.20;1.00;;;;;;5093975;28;19927;-82
2021/10/09 05:45:23;;;;;;;;;;;8.20;1.00;;;;;;5097653;28;20287;-79
2021/10/09 05:47:50;;;;;;;;;;;8.30;1.00;;;;;;5099491;28;19961;-80
2021/10/09 05:50:17;;;;;;;;;;;8.30;1.00;;;;;;5100227;28;19956;-82
2021/10/09 05:53:02;;;;;;;;;;;8.40;1.00;;;;;;5083903;28;20419;-83
2021/10/09 05:55:35;;;;;;;;;;;8.40;1.00;;;;;;5100708;28;19912;-84
2021/10/09 06:46:57;;;;;;;;;;;17.60;1.00;;;;;;5100434;28;20302;-81
2021/10/09 07:00:32;;;;;;;;;;;23.90;99.90;;;;;;5033523;28;20633;-79
2021/10/09 07:02:58;;;;;;;;;;;24.70;99.90;;;;;;5065997;28;19916;-80
2021/10/09 07:05:23;;;;;;;;;;;25.30;99.90;;;;;;5098164;28;19962;-79
2021/10/09 07:07:56;;;;;;;;;;;26.00;99.90;;;;;;5098022;28;19912;-81
2021/10/09 07:10:22;;;;;;;;;;;26.60;99.90;;;;;;5097773;28;19951;-80
2021/10/09 07:12:47;;;;;;;;;;;27.30;99.90;;;;;;5098458;28;19917;-79
2021/10/09 07:15:15;;;;;;;;;;;28.00;99.90;;;;;;5079538;28;19908;-81
2021/10/09 07:17:40;;;;;;;;;;;28.60;99.90;;;;;;5079344;28;19919;-80
2021/10/09 07:20:07;;;;;;;;;;;29.20;99.90;;;;;;5097704;28;19908;-80
2021/10/09 07:22:33;;;;;;;;;;;29.70;99.90;;;;;;5097826;28;20017;-79
2021/10/09 07:24:58;;;;;;;;;;;30.20;99.90;;;;;;5079387;28;19912;-79
2021/10/09 07:27:24;;;;;;;;;;;30.60;99.90;;;;;;5097370;28;20329;-79
2021/10/09 07:29:49;;;;;;;;;;;31.00;99.90;;;;;;5078719;28;19915;-79
2021/10/09 07:32:15;;;;;;;;;;;31.40;99.90;;;;;;5097328;28;19912;-80
2021/10/09 07:34:41;;;;;;;;;;;31.80;99.90;;;;;;5097330;28;19914;-80
2021/10/09 07:37:06;;;;;;;;;;;32.10;99.90;;;;;;5096898;28;19922;-79
2021/10/09 07:39:32;;;;;;;;;;;32.50;99.90;;;;;;5096956;28;19908;-80
2021/10/09 07:41:58;;;;;;;;;;;32.70;99.90;;;;;;5096283;28;19908;-79
2021/10/09 07:44:24;;;;;;;;;;;33.00;99.90;;;;;;5078898;28;19915;-79
2021/10/09 07:46:50;;;;;;;;;;;33.50;99.90;;;;;;5097107;28;19915;-80
2021/10/09 07:49:15;;;;;;;;;;;33.80;99.90;;;;;;5096515;28;19912;-79
2021/10/09 07:51:41;;;;;;;;;;;34.10;99.90;;;;;;5097709;28;19908;-79
2021/10/09 07:54:06;;;;;;;;;;;34.30;99.90;;;;;;5096908;28;19934;-79
2021/10/09 07:56:32;;;;;;;;;;;34.40;99.90;;;;;;5096724;28;20010;-79
2021/10/09 07:58:57;;;;;;;;;;;34.60;99.90;;;;;;5096337;28;19958;-78
2021/10/09 08:01:23;;;;;;;;;;;34.70;99.90;;;;;;5096883;28;19912;-79
2021/10/09 08:03:48;;;;;;;;;;;34.70;99.90;;;;;;5096741;28;20453;-79
2021/10/09 08:06:14;;;;;;;;;;;35.10;99.90;;;;;;5097029;28;19908;-81
2021/10/09 08:08:39;;;;;;;;;;;35.30;99.90;;;;;;5096581;28;20357;-80
2021/10/09 08:11:07;;;;;;;;;;;35.60;99.90;;;;;;5076794;28;20552;-79
2021/10/09 08:13:32;;;;;;;;;;;35.70;99.90;;;;;;5096570;28;19951;-79
2021/10/09 08:15:58;;;;;;;;;;;35.30;99.90;;;;;;5096578;28;19908;-79
2021/10/09 08:18:24;;;;;;;;;;;35.10;99.90;;;;;;5097769;28;19912;-80
2021/10/09 08:20:54;;;;;;;;;;;34.90;99.90;;;;;;5081587;28;19916;-80
2021/10/09 08:23:26;;;;;;;;;;;34.80;99.90;;;;;;5100224;28;20284;-80
2021/10/09 08:36:55;;;;;;;;;;;36.30;99.90;;;;;;5035257;28;20369;-81
2021/10/09 08:39:20;;;;;;;;;;;36.00;99.90;;;;;;5073436;28;19923;-80
2021/10/09 08:41:46;;;;;;;;;;;35.40;99.90;;;;;;5095677;28;19908;-80
2021/10/09 08:44:11;;;;;;;;;;;35.30;99.90;;;;;;5096149;28;19908;-80
2021/10/09 08:46:37;;;;;;;;;;;35.50;99.90;;;;;;5096130;28;19916;-80
2021/10/09 08:49:02;;;;;;;;;;;36.10;99.90;;;;;;5095847;28;19908;-80
2021/10/09 08:51:28;;;;;;;;;;;36.30;99.90;;;;;;5095708;28;19908;-80
2021/10/09 08:53:54;;;;;;;;;;;36.20;99.90;;;;;;5078390;28;19989;-80
2021/10/09 08:56:31;;;;;;;;;;;36.20;99.90;;;;;;5096263;28;19919;-80
2021/10/09 08:59:29;;;;;;;;;;;36.40;99.90;;;;;;5095889;28;19903;-80
2021/10/09 09:02:19;;;;;;;;;;;36.00;99.90;;;;;;5088554;28;20638;-80
2021/10/09 09:39:35;;;;;;;;;;;35.60;99.90;;;;;;5095243;28;19958;-80
2021/10/09 09:42:00;;;;;;;;;;;35.80;99.90;;;;;;5095403;28;20379;-80
2021/10/09 09:44:27;;;;;;;;;;;36.20;99.90;;;;;;5095788;28;19915;-80
2021/10/09 09:47:02;;;;;;;;;;;36.20;99.90;;;;;;5095756;28;20006;-80
2021/10/09 09:49:30;;;;;;;;;;;36.30;99.90;;;;;;5095573;28;19915;-80
2021/10/09 09:51:56;;;;;;;;;;;36.20;99.90;;;;;;5095197;28;19912;-79
2021/10/09 09:54:26;;;;;;;;;;;36.40;99.90;;;;;;5095689;28;19908;-80
2021/10/09 09:57:02;;;;;;;;;;;36.80;99.90;;;;;;5095129;28;20380;-80
2021/10/09 09:59:31;;;;;;;;;;;37.20;99.90;;;;;;5095354;28;19935;-80
2021/10/09 10:02:05;;;;;;;;;;;37.80;99.90;;;;;;5095390;28;19908;-80
2021/10/09 10:04:31;;;;;;;;;;;37.60;99.90;;;;;;5094883;28;19908;-80
2021/10/09 10:06:58;;;;;;;;;;;37.30;99.90;;;;;;5077464;28;19916;-80
2021/10/09 10:09:24;;;;;;;;;;;36.80;99.90;;;;;;5076832;28;20049;-80
2021/10/09 10:11:50;;;;;;;;;;;36.70;99.90;;;;;;5094963;28;19909;-80
2021/10/09 10:14:15;;;;;;;;;;;36.40;99.90;;;;;;5095140;28;20333;-80
2021/10/09 10:16:45;;;;;;;;;;;36.30;99.90;;;;;;5094689;28;19909;-80
2021/10/09 10:19:10;;;;;;;;;;;36.30;99.90;;;;;;5094757;28;19912;-80
2021/10/09 10:21:36;;;;;;;;;;;36.60;99.90;;;;;;5076552;28;20003;-80
2021/10/09 10:24:01;;;;;;;;;;;36.60;99.90;;;;;;5095309;28;19911;-80
2021/10/09 10:26:31;;;;;;;;;;;36.50;99.90;;;;;;5094633;28;19909;-80
2021/10/09 10:28:56;;;;;;;;;;;36.20;99.90;;;;;;5094544;28;19938;-79
2021/10/09 10:31:22;;;;;;;;;;;36.20;99.90;;;;;;5094267;28;19916;-80
2021/10/09 10:33:59;;;;;;;;;;;36.80;99.90;;;;;;5095926;28;20308;-79
2021/10/09 10:36:35;;;;;;;;;;;37.40;99.90;;;;;;5080032;28;19985;-79
2021/10/09 10:39:00;;;;;;;;;;;37.50;99.90;;;;;;5097820;28;19912;-79
2021/10/09 10:41:44;;;;;;;;;;;37.50;99.90;;;;;;5098208;28;19915;-79
2021/10/09 10:44:30;;;;;;;;;;;37.40;99.90;;;;;;5080620;28;19929;-79
2021/10/09 10:47:00;;;;;;;;;;;37.50;99.90;;;;;;5079987;28;19950;-80
2021/10/09 10:49:48;;;;;;;;;;;37.50;99.90;;;;;;5080028;28;19908;-79
2021/10/09 10:52:37;;;;;;;;;;;37.20;99.90;;;;;;5098579;28;20002;-79
2021/10/09 10:55:06;;;;;;;;;;;36.90;99.90;;;;;;5098037;28;19909;-79
2021/10/09 10:57:31;;;;;;;;;;;36.70;99.90;;;;;;5098620;28;19934;-79
2021/10/09 11:00:11;;;;;;;;;;;36.50;99.90;;;;;;5098291;28;19908;-79
2021/10/09 11:02:43;;;;;;;;;;;36.40;99.90;;;;;;5098080;28;19919;-79
2021/10/09 11:05:13;;;;;;;;;;;36.60;99.90;;;;;;5099202;28;19908;-80
2021/10/09 11:07:39;;;;;;;;;;;36.60;99.90;;;;;;5098031;28;19915;-79
2021/10/09 11:10:06;;;;;;;;;;;36.10;99.90;;;;;;5097315;28;20379;-79
2021/10/09 11:12:33;;;;;;;;;;;35.80;99.90;;;;;;5098289;28;19915;-79
2021/10/09 11:15:08;;;;;;;;;;;35.60;99.90;;;;;;5079844;28;19912;-79
2021/10/09 11:17:37;;;;;;;;;;;34.70;99.90;;;;;;5097692;28;20295;-79
2021/10/09 11:20:04;;;;;;;;;;;33.90;99.90;;;;;;5097809;28;19913;-79
2021/10/09 11:22:43;;;;;;;;;;;33.60;99.90;;;;;;5097901;28;19966;-79
2021/10/09 11:25:09;;;;;;;;;;;33.50;99.90;;;;;;5079681;28;19971;-79
2021/10/09 11:27:36;;;;;;;;;;;33.40;99.90;;;;;;5097802;28;19943;-79
2021/10/09 11:30:06;;;;;;;;;;;33.70;99.90;;;;;;5097394;28;19908;-79
2021/10/09 11:32:33;;;;;;;;;;;33.90;99.90;;;;;;5098103;28;19912;-79
2021/10/09 11:34:58;;;;;;;;;;;34.10;99.90;;;;;;5079441;28;19908;-79
2021/10/09 11:37:25;;;;;;;;;;;34.30;99.90;;;;;;5101252;22;19931;-81
2021/10/09 11:39:52;;;;;;;;;;;34.40;99.90;;;;;;5079279;28;19935;-80
2021/10/09 11:42:24;;;;;;;;;;;33.90;99.90;;;;;;5097601;28;19908;-81
2021/10/09 11:45:37;;;;;;;;;;;33.60;99.90;;;;;;5100957;28;19908;-81
2021/10/09 11:53:45;;;;;;;;;;;33.10;99.90;;;;;;5016167;28;19916;-81
2021/10/09 11:56:13;;;;;;;;;;;33.10;99.90;;;;;;5092296;28;19915;-81
2021/10/09 11:58:43;;;;;;;;;;;33.40;99.90;;;;;;5097663;28;19912;-81
2021/10/09 12:01:22;;;;;;;;;;;33.60;99.90;;;;;;5097495;28;19908;-81
2021/10/09 12:03:47;;;;;;;;;;;33.80;99.90;;;;;;5097078;28;19916;-81
2021/10/09 12:06:13;;;;;;;;;;;33.80;99.90;;;;;;5097966;28;19908;-81
2021/10/09 12:08:52;;;;;;;;;;;33.70;99.90;;;;;;5097690;28;19912;-81
2021/10/09 12:11:24;;;;;;;;;;;33.60;99.90;;;;;;5097351;28;19915;-80
2021/10/09 12:13:52;;;;;;;;;;;33.50;99.90;;;;;;5079222;28;19919;-80
2021/10/09 12:16:22;;;;;;;;;;;33.50;99.90;;;;;;5079783;28;19998;-80
2021/10/09 12:18:57;;;;;;;;;;;33.50;99.90;;;;;;5097828;28;20441;-80
2021/10/09 12:21:27;;;;;;;;;;;33.70;99.90;;;;;;5096274;28;19996;-80
2021/10/09 12:23:53;;;;;;;;;;;33.70;99.90;;;;;;5097039;28;19969;-80
2021/10/09 12:26:19;;;;;;;;;;;33.50;99.90;;;;;;5078170;28;20104;-80
2021/10/09 12:29:04;;;;;;;;;;;32.90;99.90;;;;;;5096056;28;19990;-80
2021/10/09 12:31:34;;;;;;;;;;;32.20;99.90;;;;;;5095837;28;19998;-80
2021/10/09 12:33:59;;;;;;;;;;;31.70;99.90;;;;;;5097176;28;19916;-80
2021/10/09 12:36:35;;;;;;;;;;;31.40;99.90;;;;;;5096435;28;20322;-80
2021/10/09 12:39:21;;;;;;;;;;;31.10;99.90;;;;;;5095477;28;20015;-80
2021/10/09 12:41:47;;;;;;;;;;;30.70;99.90;;;;;;5096186;28;19916;-80
2021/10/09 12:44:12;;;;;;;;;;;30.20;99.90;;;;;;5095886;28;20387;-80
2021/10/09 12:46:37;;;;;;;;;;;29.80;99.90;;;;;;5095262;28;19915;-80
2021/10/09 12:49:03;;;;;;;;;;;29.80;99.90;;;;;;5095696;28;19908;-81
2021/10/09 12:51:28;;;;;;;;;;;29.70;99.90;;;;;;5097024;28;19947;-80
2021/10/09 12:53:56;;;;;;;;;;;29.40;99.90;;;;;;5095633;28;19912;-80
2021/10/09 12:56:21;;;;;;;;;;;29.20;99.90;;;;;;5094433;28;19912;-80
2021/10/09 12:58:47;;;;;;;;;;;29.00;99.90;;;;;;5095274;28;19919;-80
2021/10/09 13:01:13;;;;;;;;;;;28.90;99.90;;;;;;5095089;28;19909;-80
2021/10/09 13:03:38;;;;;;;;;;;28.70;99.90;;;;;;5076970;28;19919;-80
2021/10/09 13:06:04;;;;;;;;;;;28.70;99.90;;;;;;5095488;28;19908;-80
2021/10/09 13:08:29;;;;;;;;;;;28.50;99.90;;;;;;5095268;28;19912;-80
2021/10/09 13:10:58;;;;;;;;;;;28.20;99.90;;;;;;5095005;28;19958;-80
2021/10/09 13:13:24;;;;;;;;;;;27.80;99.90;;;;;;5095148;28;19908;-80
2021/10/09 13:15:49;;;;;;;;;;;27.90;99.90;;;;;;5095132;28;20015;-80
2021/10/09 13:18:14;;;;;;;;;;;27.70;99.90;;;;;;5094994;28;19912;-80
2021/10/09 13:20:40;;;;;;;;;;;27.60;99.90;;;;;;5097824;28;19909;-80
2021/10/09 13:23:05;;;;;;;;;;;27.60;99.90;;;;;;5097179;28;19912;-80
2021/10/09 13:25:31;;;;;;;;;;;27.70;99.90;;;;;;5096577;28;19935;-80
2021/10/09 13:27:57;;;;;;;;;;;27.40;99.90;;;;;;5096491;28;20348;-80
2021/10/09 13:30:22;;;;;;;;;;;27.30;99.90;;;;;;5096200;28;19908;-80
2021/10/09 13:32:48;;;;;;;;;;;27.40;99.90;;;;;;5096003;28;19919;-80
2021/10/09 13:35:13;;;;;;;;;;;27.40;99.90;;;;;;5096264;28;19908;-80
2021/10/09 13:37:53;;;;;;;;;;;27.60;99.90;;;;;;5095427;28;19916;-79
2021/10/09 13:40:19;;;;;;;;;;;27.50;99.90;;;;;;5095017;28;20295;-79
2021/10/09 13:42:45;;;;;;;;;;;27.20;99.90;;;;;;5077232;28;19995;-80
2021/10/09 13:45:10;;;;;;;;;;;27.00;99.90;;;;;;5095065;28;20284;-80
2021/10/09 13:47:36;;;;;;;;;;;26.60;99.90;;;;;;5094705;28;19909;-80
2021/10/09 13:50:02;;;;;;;;;;;26.40;99.90;;;;;;5094611;28;19908;-80
2021/10/09 13:52:28;;;;;;;;;;;26.10;99.90;;;;;;5095614;28;19975;-79
2021/10/09 13:54:53;;;;;;;;;;;25.60;99.90;;;;;;5076380;28;19963;-79
2021/10/09 13:57:19;;;;;;;;;;;25.20;99.90;;;;;;5094266;28;20354;-79
2021/10/09 13:59:44;;;;;;;;;;;25.10;99.90;;;;;;5094407;28;19931;-79
2021/10/09 14:02:10;;;;;;;;;;;25.10;99.90;;;;;;5094698;28;19908;-80
2021/10/09 14:04:39;;;;;;;;;;;24.90;99.90;;;;;;5094415;28;19916;-81
2021/10/09 14:07:05;;;;;;;;;;;24.80;99.90;;;;;;5094719;28;19909;-79
2021/10/09 14:09:31;;;;;;;;;;;24.60;99.90;;;;;;5097609;28;19916;-80
2021/10/09 14:11:56;;;;;;;;;;;24.50;99.90;;;;;;5098936;28;20009;-79
2021/10/09 14:14:24;;;;;;;;;;;24.30;99.90;;;;;;5098377;28;20333;-79
2021/10/09 14:16:50;;;;;;;;;;;24.30;99.90;;;;;;5098694;28;19908;-80
2021/10/09 14:19:16;;;;;;;;;;;24.30;99.90;;;;;;5097695;28;20360;-79
2021/10/09 14:21:41;;;;;;;;;;;24.30;99.90;;;;;;5098040;28;19999;-80
2021/10/09 14:24:07;;;;;;;;;;;24.40;99.90;;;;;;5098113;28;19917;-79
2021/10/09 14:26:32;;;;;;;;;;;24.40;99.90;;;;;;5098260;28;19916;-80
2021/10/09 14:28:57;;;;;;;;;;;24.40;99.90;;;;;;5098141;28;20483;-79
2021/10/09 14:31:23;;;;;;;;;;;24.40;99.90;;;;;;5098368;28;19915;-80
2021/10/09 14:33:48;;;;;;;;;;;24.40;99.90;;;;;;5080013;28;19951;-80
2021/10/09 14:36:14;;;;;;;;;;;24.50;99.90;;;;;;5080392;28;20209;-80
2021/10/09 14:38:39;;;;;;;;;;;24.60;99.90;;;;;;5098451;28;19916;-79
2021/10/09 14:41:06;;;;;;;;;;;24.60;99.90;;;;;;5098337;28;20433;-79
2021/10/09 14:43:33;;;;;;;;;;;24.60;99.90;;;;;;5080729;28;20307;-79
2021/10/09 14:48:46;;;;;;;;;;;24.60;99.90;;;;;;5098789;28;19931;-80
2021/10/09 15:02:45;;;;;;;;;;;24.30;99.90;;;;;;5080025;28;20399;-80
2021/10/09 15:16:19;;;;;;;;;;;24.70;99.90;;;;;;5079410;28;19919;-80
2021/10/09 15:18:39;;;;;;;;;;;24.00;99.90;;;;;;5078885;28;19919;-80
2021/10/09 15:21:05;;;;;;;;;;;23.60;99.90;;;;;;5077309;28;20507;-80
2021/10/09 15:23:30;;;;;;;;;;;23.40;99.90;;;;;;5077622;28;20359;-80
2021/10/09 15:25:56;;;;;;;;;;;23.10;99.90;;;;;;5077001;28;19908;-79
2021/10/09 15:28:21;;;;;;;;;;;22.70;99.90;;;;;;5077366;28;20009;-81
2021/10/09 15:30:47;;;;;;;;;;;22.40;99.90;;;;;;5077568;28;20383;-81
2021/10/09 15:33:13;;;;;;;;;;;22.10;99.90;;;;;;5059073;28;19916;-80
2021/10/09 15:35:38;;;;;;;;;;;21.90;99.90;;;;;;5076739;28;19912;-80
2021/10/09 15:38:07;;;;;;;;;;;21.80;99.90;;;;;;5076509;28;20265;-80
2021/10/09 15:40:32;;;;;;;;;;;21.70;99.90;;;;;;5076305;28;19913;-81
2021/10/09 15:42:58;;;;;;;;;;;21.70;99.90;;;;;;5076245;28;19919;-79
2021/10/09 15:45:23;;;;;;;;;;;21.60;99.90;;;;;;5076806;28;19916;-80
2021/10/09 15:47:52;;;;;;;;;;;21.50;99.90;;;;;;5088660;28;19916;-80
2021/10/09 15:50:18;;;;;;;;;;;21.40;99.90;;;;;;5077937;28;19999;-79
2021/10/09 15:52:44;;;;;;;;;;;21.40;99.90;;;;;;5095901;28;19995;-79
2021/10/09 15:55:10;;;;;;;;;;;21.30;99.90;;;;;;5095765;28;19943;-80
2021/10/09 15:57:36;;;;;;;;;;;21.20;99.90;;;;;;5095813;28;20029;-80
2021/10/09 16:00:02;;;;;;;;;;;21.20;99.90;;;;;;5095595;28;19912;-80
2021/10/09 16:02:28;;;;;;;;;;;21.10;99.90;;;;;;5095709;28;19995;-80
2021/10/09 16:04:53;;;;;;;;;;;21.10;99.90;;;;;;5092163;28;19974;-83
2021/10/09 16:07:18;;;;;;;;;;;21.10;99.90;;;;;;5092390;28;19912;-79
2021/10/09 16:09:44;;;;;;;;;;;21.00;99.90;;;;;;5093012;28;19969;-79
2021/10/09 16:12:09;;;;;;;;;;;20.90;99.90;;;;;;5092756;28;19948;-79
2021/10/09 16:14:35;;;;;;;;;;;20.90;99.90;;;;;;5091463;28;19920;-80
2021/10/09 16:17:01;;;;;;;;;;;20.70;99.90;;;;;;5078676;28;20460;-80
2021/10/09 16:19:27;;;;;;;;;;;20.60;99.90;;;;;;5061153;28;19923;-79
2021/10/09 16:21:52;;;;;;;;;;;20.60;99.90;;;;;;5090872;28;20372;-79
2021/10/09 16:24:18;;;;;;;;;;;20.50;99.90;;;;;;5088578;28;19920;-80
2021/10/09 16:26:43;;;;;;;;;;;20.40;99.90;;;;;;5092093;28;19916;-79
2021/10/09 16:29:12;;;;;;;;;;;20.20;99.90;;;;;;5092833;28;20303;-80
2021/10/09 16:31:37;;;;;;;;;;;20.10;99.90;;;;;;5089300;28;19919;-79
2021/10/09 16:34:05;;;;;;;;;;;19.90;99.90;;;;;;5093671;28;20360;-79
2021/10/09 16:36:30;;;;;;;;;;;19.80;99.90;;;;;;5095790;28;19955;-80
2021/10/09 16:38:56;;;;;;;;;;;19.60;99.90;;;;;;5096391;28;19923;-80
2021/10/09 16:41:21;;;;;;;;;;;19.50;99.90;;;;;;5093612;28;19958;-79
2021/10/09 16:43:46;;;;;;;;;;;19.30;99.90;;;;;;5096144;28;19915;-80
2021/10/09 16:46:12;;;;;;;;;;;19.20;99.90;;;;;;5092220;28;19918;-79
2021/10/09 16:48:38;;;;;;;;;;;19.00;99.90;;;;;;5086790;28;19922;-80
2021/10/09 16:51:03;;;;;;;;;;;18.90;99.90;;;;;;5093387;28;19913;-79
2021/10/09 16:53:29;;;;;;;;;;;18.80;99.90;;;;;;5076939;28;20206;-80
2021/10/09 16:55:54;;;;;;;;;;;18.70;99.90;;;;;;5093910;28;20368;-79
2021/10/09 16:58:20;;;;;;;;;;;18.60;99.90;;;;;;5095719;28;19923;-79
2021/10/09 17:00:45;;;;;;;;;;;18.50;99.90;;;;;;5076857;28;19916;-80